createdAt,value
2018-01-20T13:05:21.233Z,966.20
2018-01-20T13:06:22.644Z,966.17
2018-01-20T13:07:21.044Z,966.15
2018-01-20T13:08:20.596Z,966.14
2018-01-20T13:09:21.155Z,966.12
2018-01-20T14:14:16.077Z,965.14
2018-01-20T14:15:16.027Z,965.16
2018-01-20T14:16:16.022Z,965.12
2018-01-20T14:17:16.019Z,965.10
2018-01-20T14:18:16.057Z,965.12
2018-01-20T14:19:16.009Z,965.13
2018-01-20T14:20:16.016Z,965.11
2018-01-20T14:21:15.997Z,965.11
2018-01-20T14:22:15.994Z,965.08
2018-01-20T14:23:16.038Z,964.99
2018-01-20T14:24:15.984Z,965.06
2018-01-20T14:25:15.982Z,965.08
2018-01-20T14:26:16.027Z,965.05
2018-01-20T14:27:15.976Z,965.05
2018-01-20T14:28:16.020Z,965.02
2018-01-20T14:29:15.964Z,965.01
2018-01-20T14:30:16.012Z,964.98
2018-01-20T14:31:15.959Z,965.01
2018-01-20T14:32:15.955Z,964.98
2018-01-20T14:33:15.989Z,964.95
2018-01-20T14:34:15.990Z,964.96
2018-01-20T14:35:16.008Z,964.93
2018-01-20T14:36:15.942Z,964.92
2018-01-20T14:37:15.942Z,964.89
2018-01-20T14:38:15.932Z,964.86
2018-01-20T14:39:15.936Z,964.87
2018-01-20T14:40:15.965Z,964.89
2018-01-20T14:41:15.922Z,964.89
2018-01-20T14:42:15.919Z,964.86
2018-01-20T14:43:15.915Z,964.86
2018-01-20T14:44:15.950Z,964.86
2018-01-20T14:45:15.907Z,964.89
2018-01-20T14:46:15.904Z,964.83
2018-01-20T14:47:16.592Z,964.82
2018-01-20T14:48:15.899Z,964.76
2018-01-20T14:49:15.943Z,964.78
2018-01-20T14:50:15.894Z,964.74
2018-01-20T14:51:15.921Z,964.76
2018-01-20T14:52:15.892Z,964.74
2018-01-20T14:53:15.879Z,964.75
2018-01-20T14:54:16.026Z,964.75
2018-01-20T14:55:15.922Z,964.75
2018-01-20T14:56:15.873Z,964.71
2018-01-20T14:57:15.865Z,964.68
2018-01-20T14:58:15.866Z,964.66
2018-01-20T14:59:15.857Z,964.71
2018-01-20T15:00:15.910Z,964.63
2018-01-20T15:01:15.852Z,964.66
2018-01-20T15:02:15.847Z,964.63
2018-01-20T15:03:15.842Z,964.61
2018-01-20T15:04:15.842Z,964.59
2018-01-20T15:05:15.871Z,964.58
2018-01-20T15:06:15.831Z,964.51
2018-01-20T15:07:15.826Z,964.51
2018-01-20T15:08:15.823Z,964.51
2018-01-20T15:09:15.828Z,964.50
2018-01-20T15:10:15.865Z,964.46
2018-01-20T15:11:15.814Z,964.45
2018-01-20T15:12:15.808Z,964.44
2018-01-20T15:13:15.805Z,964.42
2018-01-20T15:14:15.964Z,964.40
2018-01-20T15:15:15.796Z,964.37
2018-01-20T15:16:15.840Z,964.33
2018-01-20T15:17:15.793Z,964.33
2018-01-20T15:18:15.785Z,964.34
2018-01-20T15:19:15.789Z,964.35
2018-01-20T15:20:15.816Z,964.31
2018-01-20T15:21:15.774Z,964.30
2018-01-20T15:22:15.769Z,964.26
2018-01-20T15:23:15.766Z,964.25
2018-01-20T15:24:15.762Z,964.16
2018-01-20T15:25:15.758Z,964.21
2018-01-20T15:26:15.791Z,964.15
2018-01-20T15:27:15.749Z,964.14
2018-01-20T15:28:15.745Z,964.09
2018-01-20T15:29:15.744Z,964.03
2018-01-20T15:30:15.784Z,964.05
2018-01-20T15:31:15.740Z,964.00
2018-01-20T15:32:15.731Z,963.95
2018-01-20T15:33:15.724Z,963.96
2018-01-20T15:34:15.724Z,963.93
2018-01-20T15:35:15.756Z,963.92
2018-01-20T15:36:15.714Z,963.90
2018-01-20T15:37:15.710Z,963.85
2018-01-20T15:38:15.705Z,963.86
2018-01-20T15:39:15.704Z,963.83
2018-01-20T15:40:15.744Z,963.86
2018-01-20T15:41:15.695Z,963.80
2018-01-20T15:42:15.705Z,963.78
2018-01-20T15:43:16.486Z,963.74
2018-01-20T15:44:15.931Z,963.74
2018-01-20T15:45:15.720Z,963.77
2018-01-20T15:46:15.672Z,963.73
2018-01-20T15:47:15.666Z,963.72
2018-01-20T15:48:15.665Z,963.71
2018-01-20T15:49:15.660Z,963.71
2018-01-20T15:50:15.692Z,963.66
2018-01-20T15:51:15.651Z,963.64
2018-01-20T15:52:15.646Z,963.58
2018-01-20T15:53:15.649Z,963.59
2018-01-20T15:54:15.639Z,963.58
2018-01-20T15:55:15.681Z,963.56
2018-01-20T15:56:15.628Z,963.49
2018-01-20T15:57:15.626Z,963.50
2018-01-20T15:58:15.621Z,963.51
2018-01-20T15:59:15.618Z,963.48
2018-01-20T16:00:15.661Z,963.51
2018-01-20T16:01:15.609Z,963.43
2018-01-20T16:02:15.605Z,963.43
2018-01-20T16:03:15.600Z,963.41
2018-01-20T16:04:15.636Z,963.39
2018-01-20T16:05:15.630Z,963.41
2018-01-20T16:06:15.585Z,963.34
2018-01-20T16:07:15.581Z,963.31
2018-01-20T16:08:15.578Z,963.30
2018-01-20T16:09:15.574Z,963.28
2018-01-20T16:10:15.617Z,963.22
2018-01-20T16:11:15.564Z,963.23
2018-01-20T16:12:15.560Z,963.21
2018-01-20T16:13:15.560Z,963.19
2018-01-20T16:14:15.593Z,963.17
2018-01-20T16:15:15.547Z,963.22
2018-01-20T16:16:15.592Z,963.20
2018-01-20T16:17:15.563Z,963.22
2018-01-20T16:18:15.545Z,963.17
2018-01-20T16:19:15.567Z,963.22
2018-01-20T16:20:15.526Z,963.22
2018-01-20T16:21:15.561Z,963.23
2018-01-20T16:22:15.519Z,963.22
2018-01-20T16:23:15.514Z,963.18
2018-01-20T16:24:15.510Z,963.20
2018-01-20T16:25:15.517Z,963.20
2018-01-20T16:26:15.546Z,963.20
2018-01-20T16:27:15.497Z,963.18
2018-01-20T16:28:16.026Z,963.13
2018-01-20T16:29:15.490Z,963.15
2018-01-20T16:30:15.482Z,963.13
2018-01-20T16:31:15.522Z,963.11
2018-01-20T16:32:15.487Z,963.09
2018-01-20T16:33:15.470Z,963.09
2018-01-20T16:34:15.472Z,963.08
2018-01-20T16:35:15.463Z,963.07
2018-01-20T16:36:15.493Z,963.00
2018-01-20T16:37:15.451Z,962.97
2018-01-20T16:38:15.456Z,962.95
2018-01-20T16:39:15.443Z,962.94
2018-01-20T16:40:15.437Z,962.95
2018-01-20T16:41:15.484Z,962.95
2018-01-20T16:42:15.472Z,962.88
2018-01-20T16:43:15.424Z,962.93
2018-01-20T16:44:15.421Z,962.93
2018-01-20T16:45:15.419Z,962.94
2018-01-20T16:46:15.412Z,962.93
2018-01-20T16:47:15.456Z,962.91
2018-01-20T16:48:15.401Z,962.86
2018-01-20T16:49:15.399Z,962.87
2018-01-20T16:50:15.397Z,962.75
2018-01-20T16:51:15.394Z,962.74
2018-01-20T16:52:15.432Z,962.78
2018-01-20T16:53:15.377Z,962.74
2018-01-20T16:54:15.378Z,962.76
2018-01-20T16:55:15.373Z,962.74
2018-01-20T16:56:15.367Z,962.75
2018-01-20T16:57:15.408Z,962.76
2018-01-20T16:58:15.392Z,962.69
2018-01-20T16:59:15.349Z,962.69
2018-01-20T17:00:15.346Z,962.65
2018-01-20T17:01:15.341Z,962.68
2018-01-20T17:02:15.336Z,962.61
2018-01-20T17:03:15.378Z,962.66
2018-01-20T17:04:15.328Z,962.59
2018-01-20T17:05:16.002Z,962.59
2018-01-20T17:06:15.318Z,962.58
2018-01-20T17:07:15.315Z,962.55
2018-01-20T17:08:15.347Z,962.54
2018-01-20T17:09:15.306Z,962.53
2018-01-20T17:10:15.302Z,962.53
2018-01-20T17:11:15.304Z,962.47
2018-01-20T17:12:15.294Z,962.40
2018-01-20T17:13:15.727Z,962.51
2018-01-20T17:14:15.281Z,962.46
2018-01-20T17:15:15.277Z,962.42
2018-01-20T17:16:15.273Z,962.43
2018-01-20T17:17:15.316Z,962.39
2018-01-20T17:18:15.264Z,962.33
2018-01-20T17:19:15.298Z,962.32
2018-01-20T17:20:15.256Z,962.36
2018-01-20T17:21:15.250Z,962.38
2018-01-20T17:22:15.243Z,962.28
2018-01-20T17:23:15.241Z,962.36
2018-01-20T17:24:15.294Z,962.37
2018-01-20T17:25:15.230Z,962.26
2018-01-20T17:26:15.228Z,962.33
2018-01-20T17:27:15.268Z,962.30
2018-01-20T17:28:15.218Z,962.24
2018-01-20T17:29:15.212Z,962.23
2018-01-20T17:30:15.246Z,962.22
2018-01-20T17:31:15.203Z,962.23
2018-01-20T17:32:15.490Z,962.25
2018-01-20T17:33:15.196Z,962.26
2018-01-20T17:34:15.188Z,962.24
2018-01-20T17:35:15.237Z,962.21
2018-01-20T17:36:15.178Z,962.21
2018-01-20T17:37:15.220Z,962.20
2018-01-20T17:38:15.170Z,962.18
2018-01-20T17:39:16.000Z,962.16
2018-01-20T17:40:15.169Z,962.15
2018-01-20T17:41:15.196Z,962.06
2018-01-20T17:42:15.150Z,962.06
2018-01-20T17:43:15.148Z,962.02
2018-01-20T17:44:15.145Z,962.02
2018-01-20T17:45:15.138Z,962.01
2018-01-20T17:46:15.186Z,962.01
2018-01-20T17:47:15.128Z,962.01
2018-01-20T17:48:15.125Z,962.01
2018-01-20T17:49:15.125Z,961.95
2018-01-20T17:50:15.117Z,961.96
2018-01-20T17:51:15.159Z,961.96
2018-01-20T17:52:15.145Z,961.93
2018-01-20T17:53:15.102Z,961.86
2018-01-20T17:54:15.099Z,961.84
2018-01-20T17:55:15.113Z,961.84
2018-01-20T17:56:15.137Z,961.79
2018-01-20T17:57:15.086Z,961.81
2018-01-20T17:58:15.084Z,961.80
2018-01-20T17:59:15.180Z,961.82
2018-01-20T18:00:15.069Z,961.82
2018-01-20T18:01:15.111Z,961.77
2018-01-20T18:02:15.060Z,961.76
2018-01-20T18:03:15.058Z,961.79
2018-01-20T18:04:15.051Z,961.74
2018-01-20T18:05:15.048Z,961.71
2018-01-20T18:06:15.091Z,961.73
2018-01-20T18:07:15.037Z,961.77
2018-01-20T18:08:15.035Z,961.72
2018-01-20T18:09:15.027Z,961.69
2018-01-20T18:10:15.025Z,961.72
2018-01-20T18:11:15.063Z,961.72
2018-01-20T18:12:15.017Z,961.65
2018-01-20T18:13:15.011Z,961.61
2018-01-20T18:14:15.004Z,961.63
2018-01-20T18:15:14.998Z,961.62
2018-01-20T18:16:15.042Z,961.54
2018-01-20T18:17:14.994Z,961.57
2018-01-20T18:18:14.983Z,961.55
2018-01-20T18:19:15.121Z,961.54
2018-01-20T18:20:15.024Z,961.50
2018-01-20T18:21:15.021Z,961.48
2018-01-20T18:22:14.970Z,961.45
2018-01-20T18:23:14.968Z,961.49
2018-01-20T18:24:14.965Z,961.46
2018-01-20T18:25:14.955Z,961.44
2018-01-20T18:26:14.985Z,961.43
2018-01-20T18:27:14.945Z,961.45
2018-01-20T18:28:14.944Z,961.41
2018-01-20T18:29:14.934Z,961.38
2018-01-20T18:30:14.932Z,961.43
2018-01-20T18:31:14.973Z,961.40
2018-01-20T18:32:14.922Z,961.39
2018-01-20T18:33:14.916Z,961.35
2018-01-20T18:34:14.910Z,961.35
2018-01-20T18:35:14.906Z,961.34
2018-01-20T18:36:14.956Z,961.33
2018-01-20T18:37:14.898Z,961.33
2018-01-20T18:38:14.893Z,961.27
2018-01-20T18:39:14.895Z,961.28
2018-01-20T18:40:14.937Z,961.28
2018-01-20T18:41:14.882Z,961.27
2018-01-20T18:42:15.494Z,961.30
2018-01-20T18:43:14.869Z,961.26
2018-01-20T18:44:14.865Z,961.29
2018-01-20T18:45:14.897Z,961.27
2018-01-20T18:46:14.891Z,961.29
2018-01-20T18:47:14.863Z,961.28
2018-01-20T18:48:14.853Z,961.29
2018-01-20T18:49:15.495Z,961.25
2018-01-20T18:50:14.837Z,961.17
2018-01-20T18:51:14.869Z,961.21
2018-01-20T18:52:14.829Z,961.25
2018-01-20T18:53:14.825Z,961.23
2018-01-20T18:54:14.819Z,961.15
2018-01-20T18:55:15.501Z,961.20
2018-01-20T18:56:14.860Z,961.21
2018-01-20T18:57:14.806Z,961.22
2018-01-20T18:58:14.804Z,961.21
2018-01-20T18:59:14.845Z,961.17
2018-01-20T19:00:14.797Z,961.24
2018-01-20T19:01:14.788Z,961.21
2018-01-20T19:02:14.824Z,961.16
2018-01-20T19:03:14.779Z,961.22
2018-01-20T19:04:14.774Z,961.25
2018-01-20T19:05:14.770Z,961.24
2018-01-20T19:06:14.812Z,961.31
2018-01-20T19:07:14.758Z,961.26
2018-01-20T19:08:15.498Z,961.36
2018-01-20T19:09:14.787Z,961.31
2018-01-20T19:10:14.748Z,961.32
2018-01-20T19:11:14.742Z,961.33
2018-01-20T19:12:14.784Z,961.30
2018-01-20T19:13:14.739Z,961.32
2018-01-20T19:14:14.727Z,961.32
2018-01-20T19:15:14.722Z,961.28
2018-01-20T19:16:14.719Z,961.30
2018-01-20T19:17:14.758Z,961.32
2018-01-20T19:18:14.707Z,961.31
2018-01-20T19:19:14.757Z,961.33
2018-01-20T19:20:14.699Z,961.34
2018-01-20T19:21:14.696Z,961.34
2018-01-20T19:22:14.689Z,961.38
2018-01-20T19:23:14.686Z,961.38
2018-01-20T19:24:14.730Z,961.41
2018-01-20T19:25:14.684Z,961.46
2018-01-20T19:26:14.673Z,961.43
2018-01-20T19:27:14.674Z,961.46
2018-01-20T19:28:14.703Z,961.41
2018-01-20T19:29:14.668Z,961.46
2018-01-20T19:30:14.653Z,961.48
2018-01-20T19:31:14.658Z,961.46
2018-01-20T19:32:14.659Z,961.44
2018-01-20T19:33:14.685Z,961.49
2018-01-20T19:34:14.638Z,961.49
2018-01-20T19:35:14.631Z,961.49
2018-01-20T19:36:14.642Z,961.49
2018-01-20T19:37:14.623Z,961.51
2018-01-20T19:38:14.666Z,961.50
2018-01-20T19:39:14.617Z,961.50
2018-01-20T19:40:14.622Z,961.46
2018-01-20T19:41:14.613Z,961.47
2018-01-20T19:42:15.496Z,961.50
2018-01-20T19:43:14.636Z,961.48
2018-01-20T19:44:14.592Z,961.51
2018-01-20T19:45:14.586Z,961.51
2018-01-20T19:46:14.592Z,961.47
2018-01-20T19:47:14.581Z,961.46
2018-01-20T19:48:14.623Z,961.47
2018-01-20T19:49:14.577Z,961.48
2018-01-20T19:50:14.566Z,961.48
2018-01-20T19:51:14.557Z,961.47
2018-01-20T19:52:14.557Z,961.44
2018-01-20T19:53:14.608Z,961.43
2018-01-20T19:54:14.544Z,961.46
2018-01-20T19:55:14.542Z,961.45
2018-01-20T19:56:14.535Z,961.41
2018-01-20T19:57:14.534Z,961.47
2018-01-20T19:58:14.569Z,961.50
2018-01-20T19:59:14.572Z,961.47
2018-01-20T20:00:14.565Z,961.44
2018-01-20T20:01:14.518Z,961.47
2018-01-20T20:02:14.521Z,961.46
2018-01-20T20:03:14.555Z,961.46
2018-01-20T20:04:14.549Z,961.46
2018-01-20T20:05:14.497Z,961.49
2018-01-20T20:06:14.490Z,961.51
2018-01-20T20:07:14.671Z,961.48
2018-01-20T20:08:14.483Z,961.51
2018-01-20T20:09:14.519Z,961.49
2018-01-20T20:10:14.475Z,961.48
2018-01-20T20:11:14.468Z,961.48
2018-01-20T20:12:14.464Z,961.48
2018-01-20T20:13:14.459Z,961.46
2018-01-20T20:14:14.501Z,961.43
2018-01-20T20:15:14.990Z,961.45
2018-01-20T20:16:14.451Z,961.43
2018-01-20T20:17:14.483Z,961.48
2018-01-20T20:18:14.437Z,961.47
2018-01-20T20:19:14.433Z,961.46
2018-01-20T20:20:14.465Z,961.40
2018-01-20T20:21:14.426Z,961.40
2018-01-20T20:22:14.417Z,961.44
2018-01-20T20:23:14.415Z,961.39
2018-01-20T20:24:14.409Z,961.40
2018-01-20T20:25:14.459Z,961.35
2018-01-20T20:26:14.403Z,961.34
2018-01-20T20:27:14.441Z,961.31
2018-01-20T20:28:14.392Z,961.33
2018-01-20T20:29:14.393Z,961.30
2018-01-20T20:30:14.441Z,961.28
2018-01-20T20:31:14.376Z,961.28
2018-01-20T20:32:14.424Z,961.30
2018-01-20T20:33:14.366Z,961.28
2018-01-20T20:34:14.365Z,961.28
2018-01-20T20:35:14.418Z,961.28
2018-01-20T20:36:14.358Z,961.25
2018-01-20T20:37:14.389Z,961.30
2018-01-20T20:38:14.346Z,961.28
2018-01-20T20:39:14.344Z,961.31
2018-01-20T20:40:14.391Z,961.28
2018-01-20T20:41:14.334Z,961.28
2018-01-20T20:42:14.373Z,961.24
2018-01-20T20:43:14.326Z,961.26
2018-01-20T20:44:14.323Z,961.26
2018-01-20T20:45:14.314Z,961.29
2018-01-20T20:46:14.354Z,961.24
2018-01-20T20:47:14.314Z,961.26
2018-01-20T20:48:14.306Z,961.30
2018-01-20T20:49:14.301Z,961.27
2018-01-20T20:50:14.300Z,961.28
2018-01-20T20:51:14.339Z,961.29
2018-01-20T20:52:14.283Z,961.29
2018-01-20T20:53:14.285Z,961.33
2018-01-20T20:54:14.271Z,961.31
2018-01-20T20:55:14.271Z,961.30
2018-01-20T20:56:14.316Z,961.33
2018-01-20T20:57:14.304Z,961.30
2018-01-20T20:58:14.251Z,961.33
2018-01-20T20:59:14.246Z,961.34
2018-01-20T21:00:14.252Z,961.33
2018-01-20T21:01:14.240Z,961.31
2018-01-20T21:02:14.291Z,961.31
2018-01-20T21:03:14.942Z,961.29
2018-01-20T21:04:14.232Z,961.29
2018-01-20T21:05:14.221Z,961.26
2018-01-20T21:06:14.425Z,961.24
2018-01-20T21:07:14.256Z,961.28
2018-01-20T21:08:14.205Z,961.21
2018-01-20T21:09:14.202Z,961.23
2018-01-20T21:10:14.197Z,961.24
2018-01-20T21:11:14.880Z,961.17
2018-01-20T21:12:14.234Z,961.21
2018-01-20T21:13:14.185Z,961.19
2018-01-20T21:14:14.180Z,961.25
2018-01-20T21:15:14.174Z,961.20
2018-01-20T21:16:14.171Z,961.17
2018-01-20T21:17:14.213Z,961.17
2018-01-20T21:18:14.170Z,961.17
2018-01-20T21:19:14.154Z,961.16
2018-01-20T21:20:14.969Z,961.14
2018-01-20T21:21:14.192Z,961.16
2018-01-20T21:22:14.139Z,961.16
2018-01-20T21:23:14.177Z,961.17
2018-01-20T21:24:14.130Z,961.14
2018-01-20T21:25:14.128Z,961.11
2018-01-20T21:26:14.121Z,961.14
2018-01-20T21:27:14.244Z,961.14
2018-01-20T21:28:14.163Z,961.10
2018-01-20T21:29:14.122Z,961.12
2018-01-20T21:30:14.105Z,961.10
2018-01-20T21:31:14.142Z,961.08
2018-01-20T21:32:15.941Z,961.09
2018-01-20T21:33:14.090Z,961.07
2018-01-20T21:34:14.128Z,961.09
2018-01-20T21:35:14.079Z,961.06
2018-01-20T21:36:14.075Z,961.13
2018-01-20T21:37:14.070Z,961.09
2018-01-20T21:38:14.065Z,961.12
2018-01-20T21:39:14.108Z,961.08
2018-01-20T21:40:14.057Z,961.06
2018-01-20T21:41:14.940Z,961.09
2018-01-20T21:42:14.047Z,961.11
2018-01-20T21:43:14.044Z,961.08
2018-01-20T21:44:14.039Z,961.12
2018-01-20T21:45:14.506Z,961.12
2018-01-20T21:46:14.065Z,961.14
2018-01-20T21:47:14.025Z,961.16
2018-01-20T21:48:14.021Z,961.18
2018-01-20T21:49:14.020Z,961.16
2018-01-20T21:50:14.047Z,961.16
2018-01-20T21:51:14.009Z,961.21
2018-01-20T21:52:14.004Z,961.21
2018-01-20T21:53:13.995Z,961.20
2018-01-20T21:54:13.991Z,961.19
2018-01-20T21:55:14.037Z,961.23
2018-01-20T21:56:13.984Z,961.22
2018-01-20T21:57:13.979Z,961.23
2018-01-20T21:58:13.975Z,961.24
2018-01-20T21:59:13.978Z,961.22
2018-01-20T22:00:14.002Z,961.22
2018-01-20T22:01:14.002Z,961.22
2018-01-20T22:02:13.956Z,961.21
2018-01-20T22:03:13.950Z,961.21
2018-01-20T22:04:13.947Z,961.22
2018-01-20T22:05:13.940Z,961.20
2018-01-20T22:06:13.980Z,961.21
2018-01-20T22:07:13.932Z,961.27
2018-01-20T22:08:13.928Z,961.21
2018-01-20T22:09:13.921Z,961.22
2018-01-20T22:10:13.928Z,961.23
2018-01-20T22:11:13.951Z,961.18
2018-01-20T22:12:13.910Z,961.17
2018-01-20T22:13:13.903Z,961.13
2018-01-20T22:14:13.897Z,961.13
2018-01-20T22:15:13.939Z,961.15
2018-01-20T22:16:13.890Z,961.12
2018-01-20T22:17:13.884Z,961.17
2018-01-20T22:18:13.879Z,961.11
2018-01-20T22:19:13.878Z,961.11
2018-01-20T22:20:13.922Z,961.07
2018-01-20T22:21:13.867Z,961.13
2018-01-20T22:22:13.869Z,961.09
2018-01-20T22:23:13.860Z,961.14
2018-01-20T22:24:13.899Z,961.12
2018-01-20T22:25:13.850Z,961.15
2018-01-20T22:26:13.888Z,961.12
2018-01-20T22:27:13.840Z,961.12
2018-01-20T22:28:13.836Z,961.13
2018-01-20T22:29:13.831Z,961.10
2018-01-20T22:30:13.874Z,961.01
2018-01-20T22:31:13.821Z,961.03
2018-01-20T22:32:13.819Z,960.97
2018-01-20T22:33:13.852Z,960.93
2018-01-20T22:34:13.806Z,960.99
2018-01-20T22:35:13.804Z,960.95
2018-01-20T22:36:13.845Z,961.00
2018-01-20T22:37:13.796Z,961.02
2018-01-20T22:38:13.840Z,961.06
2018-01-20T22:39:13.784Z,961.09
2018-01-20T22:40:13.783Z,961.09
2018-01-20T22:41:14.593Z,961.12
2018-01-20T22:42:13.771Z,961.17
2018-01-20T22:43:13.804Z,961.21
2018-01-20T22:44:13.762Z,961.20
2018-01-20T22:45:13.763Z,961.21
2018-01-20T22:46:13.752Z,961.19
2018-01-20T22:47:13.796Z,961.20
2018-01-20T22:48:13.784Z,961.21
2018-01-20T22:49:13.742Z,961.16
2018-01-20T22:50:13.736Z,961.15
2018-01-20T22:51:13.734Z,961.11
2018-01-20T22:52:13.764Z,961.13
2018-01-20T22:53:13.721Z,961.10
2018-01-20T22:54:13.716Z,961.13
2018-01-20T22:55:13.718Z,961.16
2018-01-20T22:56:13.707Z,961.12
2018-01-20T22:57:13.751Z,961.12
2018-01-20T22:58:13.694Z,961.11
2018-01-20T22:59:13.691Z,961.15
2018-01-20T23:00:13.688Z,961.18
2018-01-20T23:01:13.681Z,961.21
2018-01-20T23:02:13.774Z,961.26
2018-01-20T23:03:13.670Z,961.24
2018-01-20T23:04:13.666Z,961.26
2018-01-20T23:05:13.665Z,961.25
2018-01-20T23:06:13.654Z,961.26
2018-01-20T23:07:13.694Z,961.26
2018-01-20T23:08:13.694Z,961.25
2018-01-20T23:09:13.642Z,961.28
2018-01-20T23:10:13.636Z,961.29
2018-01-20T23:11:13.633Z,961.28
2018-01-20T23:12:13.674Z,961.30
2018-01-20T23:13:13.663Z,961.29
2018-01-20T23:14:13.616Z,961.35
2018-01-20T23:15:13.614Z,961.35
2018-01-20T23:16:13.609Z,961.33
2018-01-20T23:17:13.601Z,961.30
2018-01-20T23:18:13.646Z,961.33
2018-01-20T23:19:13.592Z,961.30
2018-01-20T23:20:13.585Z,961.28
2018-01-20T23:21:13.581Z,961.28
2018-01-20T23:22:13.616Z,961.28
2018-01-20T23:23:13.570Z,961.27
2018-01-20T23:24:13.610Z,961.27
2018-01-20T23:25:13.562Z,961.32
2018-01-20T23:26:14.495Z,961.32
2018-01-20T23:27:13.551Z,961.34
2018-01-20T23:28:13.544Z,961.35
2018-01-20T23:29:13.586Z,961.39
2018-01-20T23:30:13.554Z,961.37
2018-01-20T23:31:13.530Z,961.42
2018-01-20T23:32:13.526Z,961.42
2018-01-20T23:33:13.520Z,961.45
2018-01-20T23:34:13.554Z,961.45
2018-01-20T23:35:13.513Z,961.44
2018-01-20T23:36:13.511Z,961.47
2018-01-20T23:37:13.498Z,961.50
2018-01-20T23:38:13.494Z,961.51
2018-01-20T23:39:13.540Z,961.48
2018-01-20T23:40:13.484Z,961.49
2018-01-20T23:41:13.482Z,961.48
2018-01-20T23:42:13.474Z,961.46
2018-01-20T23:43:13.469Z,961.47
2018-01-20T23:44:13.505Z,961.40
2018-01-20T23:45:13.463Z,961.42
2018-01-20T23:46:13.454Z,961.39
2018-01-20T23:47:13.448Z,961.37
2018-01-20T23:48:13.446Z,961.33
2018-01-20T23:49:13.487Z,961.34
2018-01-20T23:50:14.242Z,961.32
2018-01-20T23:51:13.430Z,961.35
2018-01-20T23:52:13.424Z,961.34
2018-01-20T23:53:13.460Z,961.32
2018-01-20T23:54:13.682Z,961.35
2018-01-20T23:55:13.416Z,961.33
2018-01-20T23:56:13.402Z,961.36
2018-01-20T23:57:13.402Z,961.38
2018-01-20T23:58:13.391Z,961.39
2018-01-20T23:59:13.448Z,961.41
